sensor_id;sensor_type;location;lat;lon;timestamp;P1;durP1;ratioP1;P2;durP2;ratioP2
14992;SDS011;7592;51.088;13.732;2023-09-08T00:01:09;6.50;;;6.00;;
14992;SDS011;7592;51.088;13.732;2023-09-08T00:06:01;6.90;;;6.20;;
14992;SDS011;7592;51.088;13.732;2023-09-08T00:10:53;11.93;;;8.63;;
14992;SDS011;7592;51.088;13.732;2023-09-08T00:15:45;6.50;;;5.70;;
14992;SDS011;7592;51.088;13.732;2023-09-08T00:20:37;6.50;;;5.77;;
14992;SDS011;7592;51.088;13.732;2023-09-08T00:25:29;7.07;;;6.37;;
14992;SDS011;7592;51.088;13.732;2023-09-08T00:30:21;6.33;;;5.73;;
14992;SDS011;7592;51.088;13.732;2023-09-08T00:35:13;6.60;;;5.87;;
14992;SDS011;7592;51.088;13.732;2023-09-08T00:40:06;7.30;;;5.93;;
14992;SDS011;7592;51.088;13.732;2023-09-08T00:45:00;7.40;;;5.53;;
14992;SDS011;7592;51.088;13.732;2023-09-08T00:49:52;7.20;;;5.50;;
14992;SDS011;7592;51.088;13.732;2023-09-08T00:54:44;5.93;;;5.43;;
14992;SDS011;7592;51.088;13.732;2023-09-08T00:59:36;6.33;;;5.73;;
14992;SDS011;7592;51.088;13.732;2023-09-08T01:04:29;8.87;;;7.97;;
14992;SDS011;7592;51.088;13.732;2023-09-08T01:14:54;9.83;;;9.03;;
14992;SDS011;7592;51.088;13.732;2023-09-08T01:19:47;7.80;;;6.50;;
14992;SDS011;7592;51.088;13.732;2023-09-08T01:29:54;7.10;;;6.33;;
14992;SDS011;7592;51.088;13.732;2023-09-08T01:34:47;9.37;;;7.03;;
14992;SDS011;7592;51.088;13.732;2023-09-08T01:39:40;7.87;;;7.17;;
14992;SDS011;7592;51.088;13.732;2023-09-08T01:44:32;7.90;;;7.30;;
14992;SDS011;7592;51.088;13.732;2023-09-08T01:49:24;7.60;;;6.90;;
14992;SDS011;7592;51.088;13.732;2023-09-08T01:54:16;7.30;;;6.60;;
14992;SDS011;7592;51.088;13.732;2023-09-08T01:59:08;7.30;;;6.60;;
14992;SDS011;7592;51.088;13.732;2023-09-08T02:04:00;9.97;;;9.17;;
14992;SDS011;7592;51.088;13.732;2023-09-08T02:08:53;7.83;;;7.20;;
14992;SDS011;7592;51.088;13.732;2023-09-08T02:13:46;8.23;;;7.53;;
14992;SDS011;7592;51.088;13.732;2023-09-08T02:18:38;8.43;;;7.73;;
14992;SDS011;7592;51.088;13.732;2023-09-08T02:23:30;7.67;;;6.80;;
14992;SDS011;7592;51.088;13.732;2023-09-08T02:28:23;8.77;;;8.10;;
14992;SDS011;7592;51.088;13.732;2023-09-08T02:33:17;10.57;;;9.67;;
14992;SDS011;7592;51.088;13.732;2023-09-08T02:38:09;7.63;;;7.00;;
14992;SDS011;7592;51.088;13.732;2023-09-08T02:43:02;7.60;;;6.90;;
14992;SDS011;7592;51.088;13.732;2023-09-08T02:47:55;7.53;;;6.90;;
14992;SDS011;7592;51.088;13.732;2023-09-08T02:52:48;8.43;;;5.87;;
14992;SDS011;7592;51.088;13.732;2023-09-08T02:57:40;6.90;;;6.30;;
14992;SDS011;7592;51.088;13.732;2023-09-08T03:02:33;7.03;;;6.33;;
14992;SDS011;7592;51.088;13.732;2023-09-08T03:07:26;6.33;;;5.83;;
14992;SDS011;7592;51.088;13.732;2023-09-08T03:12:18;7.37;;;6.47;;
14992;SDS011;7592;51.088;13.732;2023-09-08T03:17:11;7.00;;;6.17;;
14992;SDS011;7592;51.088;13.732;2023-09-08T03:22:04;7.40;;;6.80;;
14992;SDS011;7592;51.088;13.732;2023-09-08T03:26:56;7.63;;;7.03;;
14992;SDS011;7592;51.088;13.732;2023-09-08T03:31:49;7.97;;;7.13;;
14992;SDS011;7592;51.088;13.732;2023-09-08T03:36:42;10.00;;;7.07;;
14992;SDS011;7592;51.088;13.732;2023-09-08T03:41:34;8.13;;;6.67;;
14992;SDS011;7592;51.088;13.732;2023-09-08T03:46:26;13.50;;;10.40;;
14992;SDS011;7592;51.088;13.732;2023-09-08T03:51:19;15.63;;;9.93;;
14992;SDS011;7592;51.088;13.732;2023-09-08T03:56:11;9.53;;;8.63;;
14992;SDS011;7592;51.088;13.732;2023-09-08T04:01:04;10.17;;;8.07;;
14992;SDS011;7592;51.088;13.732;2023-09-08T04:05:56;11.80;;;7.57;;
14992;SDS011;7592;51.088;13.732;2023-09-08T04:10:48;11.63;;;7.90;;
14992;SDS011;7592;51.088;13.732;2023-09-08T04:15:41;11.37;;;10.37;;
14992;SDS011;7592;51.088;13.732;2023-09-08T04:20:33;11.23;;;10.13;;
14992;SDS011;7592;51.088;13.732;2023-09-08T04:25:25;11.97;;;10.97;;
14992;SDS011;7592;51.088;13.732;2023-09-08T04:30:17;8.97;;;8.13;;
14992;SDS011;7592;51.088;13.732;2023-09-08T04:35:10;9.43;;;8.53;;
14992;SDS011;7592;51.088;13.732;2023-09-08T04:40:03;9.37;;;8.63;;
14992;SDS011;7592;51.088;13.732;2023-09-08T04:44:56;9.63;;;8.73;;
14992;SDS011;7592;51.088;13.732;2023-09-08T04:49:48;9.37;;;8.53;;
14992;SDS011;7592;51.088;13.732;2023-09-08T04:54:40;7.77;;;7.07;;
14992;SDS011;7592;51.088;13.732;2023-09-08T04:59:33;7.47;;;6.87;;
14992;SDS011;7592;51.088;13.732;2023-09-08T05:04:29;10.77;;;7.10;;
14992;SDS011;7592;51.088;13.732;2023-09-08T05:09:21;10.87;;;9.97;;
14992;SDS011;7592;51.088;13.732;2023-09-08T05:14:13;8.20;;;6.90;;
14992;SDS011;7592;51.088;13.732;2023-09-08T05:19:05;9.30;;;6.63;;
14992;SDS011;7592;51.088;13.732;2023-09-08T05:23:59;9.23;;;7.33;;
14992;SDS011;7592;51.088;13.732;2023-09-08T05:28:51;8.37;;;7.57;;
14992;SDS011;7592;51.088;13.732;2023-09-08T05:33:44;8.17;;;7.37;;
14992;SDS011;7592;51.088;13.732;2023-09-08T05:38:37;13.03;;;8.03;;
14992;SDS011;7592;51.088;13.732;2023-09-08T05:43:29;12.93;;;8.63;;
14992;SDS011;7592;51.088;13.732;2023-09-08T05:48:21;9.13;;;7.93;;
14992;SDS011;7592;51.088;13.732;2023-09-08T05:53:14;9.27;;;6.67;;
14992;SDS011;7592;51.088;13.732;2023-09-08T05:58:09;12.93;;;8.17;;
14992;SDS011;7592;51.088;13.732;2023-09-08T06:03:02;14.93;;;8.10;;
14992;SDS011;7592;51.088;13.732;2023-09-08T06:07:55;7.77;;;5.90;;
14992;SDS011;7592;51.088;13.732;2023-09-08T06:12:59;11.00;;;6.90;;
14992;SDS011;7592;51.088;13.732;2023-09-08T06:17:53;12.33;;;7.20;;
14992;SDS011;7592;51.088;13.732;2023-09-08T06:22:46;13.77;;;7.80;;
14992;SDS011;7592;51.088;13.732;2023-09-08T06:27:38;9.63;;;5.93;;
14992;SDS011;7592;51.088;13.732;2023-09-08T06:32:31;7.65;;;6.68;;
14992;SDS011;7592;51.088;13.732;2023-09-08T06:37:23;7.40;;;5.10;;
14992;SDS011;7592;51.088;13.732;2023-09-08T06:42:16;11.55;;;6.95;;
14992;SDS011;7592;51.088;13.732;2023-09-08T06:47:14;5.93;;;5.43;;
14992;SDS011;7592;51.088;13.732;2023-09-08T06:52:07;6.03;;;5.40;;
14992;SDS011;7592;51.088;13.732;2023-09-08T06:56:59;5.50;;;5.00;;
14992;SDS011;7592;51.088;13.732;2023-09-08T07:01:52;6.18;;;5.40;;
14992;SDS011;7592;51.088;13.732;2023-09-08T07:06:44;6.18;;;5.40;;
14992;SDS011;7592;51.088;13.732;2023-09-08T07:11:38;5.85;;;5.35;;
14992;SDS011;7592;51.088;13.732;2023-09-08T07:16:31;6.03;;;5.45;;
14992;SDS011;7592;51.088;13.732;2023-09-08T07:21:24;5.75;;;5.20;;
14992;SDS011;7592;51.088;13.732;2023-09-08T07:26:16;6.28;;;5.57;;
14992;SDS011;7592;51.088;13.732;2023-09-08T07:31:10;5.45;;;5.00;;
14992;SDS011;7592;51.088;13.732;2023-09-08T07:36:07;5.18;;;4.78;;
14992;SDS011;7592;51.088;13.732;2023-09-08T07:41:02;5.30;;;4.90;;
14992;SDS011;7592;51.088;13.732;2023-09-08T07:45:55;5.13;;;4.68;;
14992;SDS011;7592;51.088;13.732;2023-09-08T07:50:47;5.22;;;4.82;;
14992;SDS011;7592;51.088;13.732;2023-09-08T07:55:39;7.25;;;4.57;;
14992;SDS011;7592;51.088;13.732;2023-09-08T08:00:31;4.57;;;4.28;;
14992;SDS011;7592;51.088;13.732;2023-09-08T08:05:24;6.85;;;4.20;;
14992;SDS011;7592;51.088;13.732;2023-09-08T08:10:17;4.72;;;4.30;;
14992;SDS011;7592;51.088;13.732;2023-09-08T08:15:10;4.82;;;4.53;;
14992;SDS011;7592;51.088;13.732;2023-09-08T08:20:03;8.45;;;4.43;;
14992;SDS011;7592;51.088;13.732;2023-09-08T08:25:02;5.60;;;5.20;;
14992;SDS011;7592;51.088;13.732;2023-09-08T08:41:25;7.72;;;4.95;;
14992;SDS011;7592;51.088;13.732;2023-09-08T08:46:18;4.82;;;4.53;;
14992;SDS011;7592;51.088;13.732;2023-09-08T08:51:12;5.03;;;4.53;;
14992;SDS011;7592;51.088;13.732;2023-09-08T08:56:06;4.93;;;4.40;;
14992;SDS011;7592;51.088;13.732;2023-09-08T09:01:00;9.03;;;4.50;;
14992;SDS011;7592;51.088;13.732;2023-09-08T09:05:53;6.87;;;4.77;;
14992;SDS011;7592;51.088;13.732;2023-09-08T09:10:59;5.07;;;4.37;;
14992;SDS011;7592;51.088;13.732;2023-09-08T09:15:51;6.30;;;4.15;;
14992;SDS011;7592;51.088;13.732;2023-09-08T09:20:54;9.02;;;4.68;;
14992;SDS011;7592;51.088;13.732;2023-09-08T09:25:47;5.05;;;4.70;;
14992;SDS011;7592;51.088;13.732;2023-09-08T09:30:49;4.15;;;3.83;;
14992;SDS011;7592;51.088;13.732;2023-09-08T09:40:37;5.35;;;3.90;;
14992;SDS011;7592;51.088;13.732;2023-09-08T09:45:29;4.30;;;4.00;;
14992;SDS011;7592;51.088;13.732;2023-09-08T09:50:28;7.43;;;4.43;;
14992;SDS011;7592;51.088;13.732;2023-09-08T09:55:22;4.18;;;3.92;;
14992;SDS011;7592;51.088;13.732;2023-09-08T10:00:16;5.32;;;4.82;;
14992;SDS011;7592;51.088;13.732;2023-09-08T10:05:12;4.95;;;4.53;;
14992;SDS011;7592;51.088;13.732;2023-09-08T10:10:05;4.68;;;4.40;;
14992;SDS011;7592;51.088;13.732;2023-09-08T10:14:57;4.60;;;4.20;;
14992;SDS011;7592;51.088;13.732;2023-09-08T10:19:51;4.82;;;4.50;;
14992;SDS011;7592;51.088;13.732;2023-09-08T10:24:45;5.22;;;4.78;;
14992;SDS011;7592;51.088;13.732;2023-09-08T10:29:38;4.47;;;4.07;;
14992;SDS011;7592;51.088;13.732;2023-09-08T10:34:31;4.80;;;4.50;;
14992;SDS011;7592;51.088;13.732;2023-09-08T10:44:27;5.40;;;4.60;;
14992;SDS011;7592;51.088;13.732;2023-09-08T10:49:24;5.00;;;4.57;;
14992;SDS011;7592;51.088;13.732;2023-09-08T10:55:39;6.93;;;4.90;;
14992;SDS011;7592;51.088;13.732;2023-09-08T11:00:44;5.53;;;4.90;;
14992;SDS011;7592;51.088;13.732;2023-09-08T11:05:42;8.15;;;4.55;;
14992;SDS011;7592;51.088;13.732;2023-09-08T11:10:35;4.55;;;4.22;;
14992;SDS011;7592;51.088;13.732;2023-09-08T11:15:29;4.93;;;4.63;;
14992;SDS011;7592;51.088;13.732;2023-09-08T11:20:27;4.05;;;3.80;;
14992;SDS011;7592;51.088;13.732;2023-09-08T11:25:20;5.75;;;4.53;;
14992;SDS011;7592;51.088;13.732;2023-09-08T11:30:12;5.20;;;4.47;;
14992;SDS011;7592;51.088;13.732;2023-09-08T11:35:05;9.27;;;7.75;;
14992;SDS011;7592;51.088;13.732;2023-09-08T11:47:01;6.90;;;3.80;;
14992;SDS011;7592;51.088;13.732;2023-09-08T11:51:55;4.55;;;4.10;;
14992;SDS011;7592;51.088;13.732;2023-09-08T11:56:48;6.37;;;4.47;;
14992;SDS011;7592;51.088;13.732;2023-09-08T12:01:40;4.90;;;4.00;;
14992;SDS011;7592;51.088;13.732;2023-09-08T12:06:32;4.33;;;3.93;;
14992;SDS011;7592;51.088;13.732;2023-09-08T12:11:24;6.10;;;4.60;;
14992;SDS011;7592;51.088;13.732;2023-09-08T12:16:24;7.30;;;3.70;;
14992;SDS011;7592;51.088;13.732;2023-09-08T12:21:16;6.67;;;3.93;;
14992;SDS011;7592;51.088;13.732;2023-09-08T12:26:08;4.57;;;3.80;;
14992;SDS011;7592;51.088;13.732;2023-09-08T12:31:02;7.97;;;4.27;;
14992;SDS011;7592;51.088;13.732;2023-09-08T12:35:54;5.97;;;4.37;;
14992;SDS011;7592;51.088;13.732;2023-09-08T12:40:46;5.03;;;4.50;;
14992;SDS011;7592;51.088;13.732;2023-09-08T12:45:38;6.97;;;4.80;;
14992;SDS011;7592;51.088;13.732;2023-09-08T12:50:30;6.20;;;4.00;;
14992;SDS011;7592;51.088;13.732;2023-09-08T12:55:23;4.10;;;3.77;;
14992;SDS011;7592;51.088;13.732;2023-09-08T13:00:15;4.40;;;4.00;;
14992;SDS011;7592;51.088;13.732;2023-09-08T13:05:08;10.60;;;4.13;;
14992;SDS011;7592;51.088;13.732;2023-09-08T13:10:00;5.53;;;3.57;;
14992;SDS011;7592;51.088;13.732;2023-09-08T13:14:55;3.80;;;3.50;;
14992;SDS011;7592;51.088;13.732;2023-09-08T13:19:47;3.67;;;3.30;;
14992;SDS011;7592;51.088;13.732;2023-09-08T13:24:40;5.33;;;4.23;;
14992;SDS011;7592;51.088;13.732;2023-09-08T13:29:32;3.80;;;3.50;;
14992;SDS011;7592;51.088;13.732;2023-09-08T13:34:24;3.77;;;3.40;;
14992;SDS011;7592;51.088;13.732;2023-09-08T13:39:16;3.90;;;3.70;;
14992;SDS011;7592;51.088;13.732;2023-09-08T13:44:08;6.83;;;3.77;;
14992;SDS011;7592;51.088;13.732;2023-09-08T13:49:00;3.53;;;3.23;;
14992;SDS011;7592;51.088;13.732;2023-09-08T13:53:55;4.20;;;3.90;;
14992;SDS011;7592;51.088;13.732;2023-09-08T13:58:48;4.30;;;3.90;;
14992;SDS011;7592;51.088;13.732;2023-09-08T14:03:46;4.37;;;4.07;;
14992;SDS011;7592;51.088;13.732;2023-09-08T14:08:45;4.47;;;3.33;;
14992;SDS011;7592;51.088;13.732;2023-09-08T14:13:41;3.63;;;3.33;;
14992;SDS011;7592;51.088;13.732;2023-09-08T14:18:34;4.10;;;3.73;;
14992;SDS011;7592;51.088;13.732;2023-09-08T14:23:26;4.07;;;3.77;;
14992;SDS011;7592;51.088;13.732;2023-09-08T14:28:20;3.70;;;3.40;;
14992;SDS011;7592;51.088;13.732;2023-09-08T14:33:12;4.17;;;3.83;;
14992;SDS011;7592;51.088;13.732;2023-09-08T14:38:04;4.43;;;3.97;;
14992;SDS011;7592;51.088;13.732;2023-09-08T14:42:56;4.10;;;3.73;;
14992;SDS011;7592;51.088;13.732;2023-09-08T14:47:48;5.00;;;3.80;;
14992;SDS011;7592;51.088;13.732;2023-09-08T14:52:41;3.50;;;3.17;;
14992;SDS011;7592;51.088;13.732;2023-09-08T14:57:33;3.90;;;3.60;;
14992;SDS011;7592;51.088;13.732;2023-09-08T15:02:25;3.57;;;3.27;;
14992;SDS011;7592;51.088;13.732;2023-09-08T15:07:17;4.10;;;3.60;;
14992;SDS011;7592;51.088;13.732;2023-09-08T15:12:09;4.20;;;3.33;;
14992;SDS011;7592;51.088;13.732;2023-09-08T15:17:01;4.20;;;3.67;;
14992;SDS011;7592;51.088;13.732;2023-09-08T15:21:54;3.70;;;3.50;;
14992;SDS011;7592;51.088;13.732;2023-09-08T15:26:46;6.00;;;3.73;;
14992;SDS011;7592;51.088;13.732;2023-09-08T15:31:38;4.40;;;3.97;;
14992;SDS011;7592;51.088;13.732;2023-09-08T15:36:31;4.13;;;3.83;;
14992;SDS011;7592;51.088;13.732;2023-09-08T15:41:24;3.87;;;3.57;;
14992;SDS011;7592;51.088;13.732;2023-09-08T15:46:16;4.93;;;4.60;;
14992;SDS011;7592;51.088;13.732;2023-09-08T15:51:12;4.00;;;3.70;;
14992;SDS011;7592;51.088;13.732;2023-09-08T15:56:05;3.97;;;3.57;;
14992;SDS011;7592;51.088;13.732;2023-09-08T16:00:59;5.83;;;5.37;;
14992;SDS011;7592;51.088;13.732;2023-09-08T16:05:52;3.83;;;3.40;;
14992;SDS011;7592;51.088;13.732;2023-09-08T16:10:45;4.03;;;3.50;;
14992;SDS011;7592;51.088;13.732;2023-09-08T16:15:38;4.00;;;3.67;;
14992;SDS011;7592;51.088;13.732;2023-09-08T16:20:32;3.40;;;3.20;;
14992;SDS011;7592;51.088;13.732;2023-09-08T16:25:24;3.50;;;3.20;;
14992;SDS011;7592;51.088;13.732;2023-09-08T16:30:16;5.60;;;4.40;;
14992;SDS011;7592;51.088;13.732;2023-09-08T16:35:08;5.30;;;4.90;;
14992;SDS011;7592;51.088;13.732;2023-09-08T16:40:00;6.03;;;3.77;;
14992;SDS011;7592;51.088;13.732;2023-09-08T16:44:52;8.20;;;5.87;;
14992;SDS011;7592;51.088;13.732;2023-09-08T16:49:44;4.47;;;4.07;;
14992;SDS011;7592;51.088;13.732;2023-09-08T16:54:37;4.07;;;3.77;;
14992;SDS011;7592;51.088;13.732;2023-09-08T16:59:29;3.60;;;3.30;;
14992;SDS011;7592;51.088;13.732;2023-09-08T17:04:21;4.40;;;4.00;;
14992;SDS011;7592;51.088;13.732;2023-09-08T17:09:13;6.87;;;3.40;;
14992;SDS011;7592;51.088;13.732;2023-09-08T17:14:06;4.73;;;3.43;;
14992;SDS011;7592;51.088;13.732;2023-09-08T17:18:59;5.30;;;3.87;;
14992;SDS011;7592;51.088;13.732;2023-09-08T17:23:51;4.73;;;3.83;;
14992;SDS011;7592;51.088;13.732;2023-09-08T17:28:46;3.87;;;3.60;;
14992;SDS011;7592;51.088;13.732;2023-09-08T17:33:38;4.20;;;3.80;;
14992;SDS011;7592;51.088;13.732;2023-09-08T17:38:30;3.83;;;3.53;;
14992;SDS011;7592;51.088;13.732;2023-09-08T17:43:23;4.13;;;3.83;;
14992;SDS011;7592;51.088;13.732;2023-09-08T17:48:15;6.27;;;5.73;;
14992;SDS011;7592;51.088;13.732;2023-09-08T17:53:08;4.87;;;4.03;;
14992;SDS011;7592;51.088;13.732;2023-09-08T17:58:00;5.90;;;4.50;;
14992;SDS011;7592;51.088;13.732;2023-09-08T18:02:52;5.07;;;4.43;;
14992;SDS011;7592;51.088;13.732;2023-09-08T18:07:44;5.23;;;4.53;;
14992;SDS011;7592;51.088;13.732;2023-09-08T18:12:37;10.47;;;7.60;;
14992;SDS011;7592;51.088;13.732;2023-09-08T18:17:29;7.57;;;6.80;;
14992;SDS011;7592;51.088;13.732;2023-09-08T18:22:22;8.83;;;4.77;;
14992;SDS011;7592;51.088;13.732;2023-09-08T18:27:17;5.07;;;4.57;;
14992;SDS011;7592;51.088;13.732;2023-09-08T18:32:09;4.80;;;4.30;;
14992;SDS011;7592;51.088;13.732;2023-09-08T18:37:03;7.57;;;6.00;;
14992;SDS011;7592;51.088;13.732;2023-09-08T18:41:56;7.70;;;5.83;;
14992;SDS011;7592;51.088;13.732;2023-09-08T18:46:48;5.80;;;5.30;;
14992;SDS011;7592;51.088;13.732;2023-09-08T18:51:40;8.13;;;5.50;;
14992;SDS011;7592;51.088;13.732;2023-09-08T18:56:33;9.60;;;7.37;;
14992;SDS011;7592;51.088;13.732;2023-09-08T19:01:25;5.57;;;5.03;;
14992;SDS011;7592;51.088;13.732;2023-09-08T19:06:17;5.87;;;5.27;;
14992;SDS011;7592;51.088;13.732;2023-09-08T19:11:09;5.40;;;4.97;;
14992;SDS011;7592;51.088;13.732;2023-09-08T19:16:01;6.17;;;5.67;;
14992;SDS011;7592;51.088;13.732;2023-09-08T19:20:53;6.03;;;4.90;;
14992;SDS011;7592;51.088;13.732;2023-09-08T19:25:47;8.73;;;6.33;;
14992;SDS011;7592;51.088;13.732;2023-09-08T19:30:44;8.30;;;6.97;;
14992;SDS011;7592;51.088;13.732;2023-09-08T19:35:39;24.83;;;18.73;;
14992;SDS011;7592;51.088;13.732;2023-09-08T19:40:32;11.83;;;10.40;;
14992;SDS011;7592;51.088;13.732;2023-09-08T19:45:24;10.33;;;7.00;;
14992;SDS011;7592;51.088;13.732;2023-09-08T19:50:16;8.77;;;7.33;;
14992;SDS011;7592;51.088;13.732;2023-09-08T19:55:11;17.03;;;15.33;;
14992;SDS011;7592;51.088;13.732;2023-09-08T20:00:04;7.77;;;7.00;;
14992;SDS011;7592;51.088;13.732;2023-09-08T20:05:02;11.13;;;7.73;;
14992;SDS011;7592;51.088;13.732;2023-09-08T20:09:55;6.17;;;5.57;;
14992;SDS011;7592;51.088;13.732;2023-09-08T20:14:47;6.67;;;5.87;;
14992;SDS011;7592;51.088;13.732;2023-09-08T20:19:40;7.37;;;6.63;;
14992;SDS011;7592;51.088;13.732;2023-09-08T20:24:32;9.30;;;6.93;;
14992;SDS011;7592;51.088;13.732;2023-09-08T20:29:25;7.37;;;6.67;;
14992;SDS011;7592;51.088;13.732;2023-09-08T20:34:20;7.73;;;5.77;;
14992;SDS011;7592;51.088;13.732;2023-09-08T20:39:12;6.60;;;6.00;;
14992;SDS011;7592;51.088;13.732;2023-09-08T20:44:04;11.37;;;9.73;;
14992;SDS011;7592;51.088;13.732;2023-09-08T20:48:56;12.27;;;9.90;;
14992;SDS011;7592;51.088;13.732;2023-09-08T20:53:49;9.80;;;8.77;;
14992;SDS011;7592;51.088;13.732;2023-09-08T20:58:41;9.50;;;8.53;;
14992;SDS011;7592;51.088;13.732;2023-09-08T21:03:36;8.97;;;8.13;;
14992;SDS011;7592;51.088;13.732;2023-09-08T21:08:30;8.63;;;7.83;;
14992;SDS011;7592;51.088;13.732;2023-09-08T21:13:22;9.87;;;7.87;;
14992;SDS011;7592;51.088;13.732;2023-09-08T21:18:14;8.30;;;7.50;;
14992;SDS011;7592;51.088;13.732;2023-09-08T21:23:07;7.70;;;6.90;;
14992;SDS011;7592;51.088;13.732;2023-09-08T21:27:59;7.57;;;6.53;;
14992;SDS011;7592;51.088;13.732;2023-09-08T21:32:52;9.10;;;7.10;;
14992;SDS011;7592;51.088;13.732;2023-09-08T21:37:44;7.23;;;6.57;;
14992;SDS011;7592;51.088;13.732;2023-09-08T21:42:36;6.87;;;6.20;;
14992;SDS011;7592;51.088;13.732;2023-09-08T21:47:29;7.37;;;6.77;;
14992;SDS011;7592;51.088;13.732;2023-09-08T21:52:25;8.80;;;7.50;;
14992;SDS011;7592;51.088;13.732;2023-09-08T21:57:29;8.13;;;7.37;;
14992;SDS011;7592;51.088;13.732;2023-09-08T22:02:21;9.47;;;8.47;;
14992;SDS011;7592;51.088;13.732;2023-09-08T22:07:13;12.50;;;11.17;;
14992;SDS011;7592;51.088;13.732;2023-09-08T22:12:05;10.77;;;9.77;;
14992;SDS011;7592;51.088;13.732;2023-09-08T22:16:59;18.40;;;10.00;;
14992;SDS011;7592;51.088;13.732;2023-09-08T22:21:51;9.53;;;8.40;;
14992;SDS011;7592;51.088;13.732;2023-09-08T22:26:44;8.83;;;8.03;;
14992;SDS011;7592;51.088;13.732;2023-09-08T22:31:36;10.23;;;7.90;;
14992;SDS011;7592;51.088;13.732;2023-09-08T22:36:28;7.63;;;6.93;;
14992;SDS011;7592;51.088;13.732;2023-09-08T22:41:20;9.07;;;7.80;;
14992;SDS011;7592;51.088;13.732;2023-09-08T22:46:13;8.10;;;7.23;;
14992;SDS011;7592;51.088;13.732;2023-09-08T22:51:05;7.70;;;7.00;;
14992;SDS011;7592;51.088;13.732;2023-09-08T22:55:57;8.50;;;7.70;;
14992;SDS011;7592;51.088;13.732;2023-09-08T23:00:49;7.43;;;6.73;;
14992;SDS011;7592;51.088;13.732;2023-09-08T23:05:41;8.13;;;7.33;;
14992;SDS011;7592;51.088;13.732;2023-09-08T23:10:34;8.40;;;7.60;;
14992;SDS011;7592;51.088;13.732;2023-09-08T23:15:26;8.67;;;7.97;;
14992;SDS011;7592;51.088;13.732;2023-09-08T23:20:20;8.87;;;8.07;;
14992;SDS011;7592;51.088;13.732;2023-09-08T23:25:13;8.57;;;7.87;;
14992;SDS011;7592;51.088;13.732;2023-09-08T23:30:05;8.20;;;7.50;;
14992;SDS011;7592;51.088;13.732;2023-09-08T23:35:01;10.17;;;7.93;;
14992;SDS011;7592;51.088;13.732;2023-09-08T23:39:55;7.90;;;7.20;;
14992;SDS011;7592;51.088;13.732;2023-09-08T23:44:47;8.80;;;8.10;;
14992;SDS011;7592;51.088;13.732;2023-09-08T23:49:39;8.60;;;7.77;;
14992;SDS011;7592;51.088;13.732;2023-09-08T23:54:31;8.73;;;7.93;;
14992;SDS011;7592;51.088;13.732;2023-09-08T23:59:24;8.93;;;8.03;;
